Time;durP1;ratioP1;P1;durP2;ratioP2;P2;SDS_P1;SDS_P2;PMS_P1;PMS_P2;Temp;Humidity;BMP_temperature;BMP_pressure;BME280_temperature;BME280_humidity;BME280_pressure;Samples;Min_cycle;Max_cycle;Signal;HPM_P1;HPM_P2
2021/10/28 00:12:52;;;;;;;1.00;0.40;;;8.50;99.90;;;;;;5056206;28;20189;-80
2021/10/28 00:15:26;;;;;;;1.13;0.20;;;8.40;99.90;;;;;;5058407;28;20174;-81
2021/10/28 00:18:07;;;;;;;0.20;0.20;;;8.30;99.90;;;;;;5057479;28;20647;-80
2021/10/28 00:20:34;;;;;;;0.10;0.10;;;8.30;99.90;;;;;;5060568;28;20201;-80
2021/10/28 00:23:02;;;;;;;0.30;0.30;;;8.30;99.90;;;;;;5062143;28;20173;-80
2021/10/28 00:25:28;;;;;;;0.23;0.23;;;8.30;99.90;;;;;;5047543;28;20173;-80
2021/10/28 00:27:54;;;;;;;0.20;0.20;;;8.30;99.90;;;;;;5060676;28;20178;-80
2021/10/28 00:30:20;;;;;;;0.10;0.10;;;8.20;99.90;;;;;;5051963;28;20695;-80
2021/10/28 00:32:46;;;;;;;0.10;0.10;;;8.30;99.90;;;;;;5060493;28;20180;-80
2021/10/28 00:35:13;;;;;;;0.10;0.10;;;8.40;99.90;;;;;;5047720;28;20256;-80
2021/10/28 00:37:39;;;;;;;0.47;0.47;;;8.40;99.90;;;;;;5059181;28;20187;-80
2021/10/28 00:40:09;;;;;;;0.03;0.03;;;8.40;99.90;;;;;;5055696;28;20182;-80
2021/10/28 00:42:37;;;;;;;0.20;0.20;;;8.40;99.90;;;;;;5052034;28;20182;-80
2021/10/28 00:45:05;;;;;;;0.20;0.20;;;8.40;99.90;;;;;;5056339;28;20173;-80
2021/10/28 00:47:33;;;;;;;0.73;0.70;;;8.50;99.90;;;;;;5060093;28;20170;-80
2021/10/28 00:50:03;;;;;;;0.10;0.10;;;8.40;99.90;;;;;;5058746;28;20227;-81
2021/10/28 00:52:29;;;;;;;0.10;0.10;;;8.40;99.90;;;;;;5049168;28;20180;-80
2021/10/28 00:54:54;;;;;;;0.20;0.20;;;8.40;99.90;;;;;;5058947;28;20669;-80
2021/10/28 00:57:20;;;;;;;0.40;0.30;;;8.30;99.90;;;;;;5056720;28;20182;-80
2021/10/28 00:59:46;;;;;;;0.63;0.50;;;8.30;99.90;;;;;;5057967;28;20209;-80
2021/10/28 01:02:12;;;;;;;0.67;0.17;;;8.20;99.90;;;;;;5063531;28;20695;-80
2021/10/28 01:04:38;;;;;;;0.20;0.20;;;8.10;99.90;;;;;;5060950;28;20179;-80
2021/10/28 01:07:05;;;;;;;0.63;0.60;;;8.10;99.90;;;;;;5059323;28;20177;-80
2021/10/28 01:09:30;;;;;;;0.10;0.10;;;8.20;99.90;;;;;;5046933;28;20252;-80
2021/10/28 01:11:57;;;;;;;0.20;0.20;;;8.20;99.90;;;;;;5051947;28;20183;-80
2021/10/28 01:14:23;;;;;;;0.17;0.17;;;8.10;99.90;;;;;;5061354;28;20177;-80
2021/10/28 01:16:53;;;;;;;0.10;0.10;;;8.20;99.90;;;;;;5064543;28;20280;-80
2021/10/28 01:19:22;;;;;;;0.20;0.20;;;8.10;99.90;;;;;;5055675;28;20195;-81
2021/10/28 01:21:48;;;;;;;0.10;0.10;;;8.10;99.90;;;;;;5053929;28;20544;-80
2021/10/28 01:24:14;;;;;;;0.40;0.40;;;8.00;99.90;;;;;;5070215;28;20177;-80
2021/10/28 01:26:39;;;;;;;0.10;0.10;;;7.90;99.90;;;;;;5053508;28;20198;-80
2021/10/28 01:29:05;;;;;;;0.20;0.20;;;7.90;99.90;;;;;;5058709;28;20211;-80
2021/10/28 01:31:34;;;;;;;0.87;0.50;;;7.90;99.90;;;;;;5082915;28;20603;-80
2021/10/28 01:34:02;;;;;;;1.90;0.57;;;7.90;99.90;;;;;;5058473;28;20634;-80
2021/10/28 01:36:27;;;;;;;0.20;0.20;;;7.90;99.90;;;;;;5060338;28;20268;-80
2021/10/28 01:38:54;;;;;;;0.27;0.27;;;7.90;99.90;;;;;;5056080;28;20296;-80
2021/10/28 01:41:20;;;;;;;0.13;0.13;;;7.90;99.90;;;;;;5048296;28;20218;-80
2021/10/28 01:43:46;;;;;;;0.30;0.30;;;7.90;99.90;;;;;;5057130;28;20173;-81
2021/10/28 01:46:22;;;;;;;0.20;0.20;;;7.90;99.90;;;;;;5052571;28;20236;-80
2021/10/28 01:48:48;;;;;;;0.47;0.33;;;7.80;99.90;;;;;;5042456;28;20219;-80
2021/10/28 01:51:20;;;;;;;0.37;0.33;;;7.80;99.90;;;;;;5051008;28;20273;-80
2021/10/28 01:53:46;;;;;;;2.07;0.17;;;7.90;99.90;;;;;;5080952;28;20188;-80
2021/10/28 01:56:12;;;;;;;1.80;0.40;;;7.90;99.90;;;;;;5063308;28;20169;-80
2021/10/28 01:58:38;;;;;;;0.10;0.10;;;7.80;99.90;;;;;;5057615;28;20314;-80
2021/10/28 02:01:06;;;;;;;0.27;0.27;;;7.80;99.90;;;;;;5062429;28;20190;-80
2021/10/28 02:03:32;;;;;;;0.10;0.10;;;7.80;99.90;;;;;;5056352;28;20181;-80
2021/10/28 02:05:58;;;;;;;0.10;0.10;;;7.80;99.90;;;;;;5069440;28;20181;-80
2021/10/28 02:08:25;;;;;;;0.10;0.10;;;7.90;99.90;;;;;;5064563;28;20292;-80
2021/10/28 02:10:51;;;;;;;0.10;0.10;;;7.90;99.90;;;;;;5062526;28;20531;-80
2021/10/28 02:13:18;;;;;;;0.20;0.20;;;7.90;99.90;;;;;;5061494;28;20198;-79
2021/10/28 02:15:44;;;;;;;0.27;0.20;;;8.00;99.90;;;;;;5037971;28;20587;-80
2021/10/28 02:18:10;;;;;;;0.60;0.60;;;7.90;99.90;;;;;;5057210;28;20207;-80
2021/10/28 02:20:38;;;;;;;0.10;0.10;;;7.90;99.90;;;;;;5056036;28;20220;-80
2021/10/28 02:23:05;;;;;;;0.10;0.10;;;7.90;99.90;;;;;;5057589;28;20266;-80
2021/10/28 02:25:30;;;;;;;0.10;0.10;;;7.90;99.90;;;;;;5063677;28;20252;-80
2021/10/28 02:27:57;;;;;;;0.10;0.10;;;7.90;99.90;;;;;;5062668;28;20197;-80
2021/10/28 02:30:23;;;;;;;0.40;0.40;;;7.80;99.90;;;;;;5067765;28;20194;-80
2021/10/28 02:32:49;;;;;;;0.20;0.20;;;7.80;99.90;;;;;;5062887;28;20182;-80
2021/10/28 02:35:16;;;;;;;0.10;0.10;;;7.80;99.90;;;;;;5067811;28;20172;-80
2021/10/28 02:37:42;;;;;;;0.20;0.20;;;7.80;99.90;;;;;;5066374;28;20181;-80
2021/10/28 02:40:08;;;;;;;0.27;0.27;;;7.80;99.90;;;;;;5062517;28;20170;-80
2021/10/28 02:42:34;;;;;;;0.27;0.27;;;7.90;99.90;;;;;;5062433;28;20243;-81
2021/10/28 02:45:00;;;;;;;0.10;0.10;;;7.90;99.90;;;;;;5061745;28;20271;-81
2021/10/28 02:47:26;;;;;;;1.33;0.63;;;7.90;99.90;;;;;;5056031;28;20263;-81
2021/10/28 02:49:52;;;;;;;0.10;0.10;;;7.90;99.90;;;;;;5069607;28;20638;-80
2021/10/28 02:52:18;;;;;;;0.20;0.20;;;7.90;99.90;;;;;;5054429;28;20257;-80
2021/10/28 02:54:43;;;;;;;0.67;0.23;;;8.00;99.90;;;;;;5061989;28;20663;-81
2021/10/28 02:57:09;;;;;;;0.40;0.10;;;8.00;99.90;;;;;;5058232;28;20248;-80
2021/10/28 02:59:35;;;;;;;0.17;0.17;;;8.00;99.90;;;;;;5066273;28;20202;-80
2021/10/28 03:02:01;;;;;;;0.50;0.50;;;8.00;99.90;;;;;;5061133;28;20215;-80
2021/10/28 03:04:27;;;;;;;0.20;0.20;;;7.90;99.90;;;;;;5059627;28;20238;-80
2021/10/28 03:06:53;;;;;;;0.10;0.10;;;7.90;99.90;;;;;;5065162;28;20178;-80
2021/10/28 03:09:23;;;;;;;0.10;0.10;;;7.90;99.90;;;;;;5066119;28;20666;-80
2021/10/28 03:11:51;;;;;;;0.27;0.20;;;7.90;99.90;;;;;;5060500;28;20189;-80
2021/10/28 03:15:04;;;;;;;0.10;0.10;;;7.90;99.90;;;;;;5059667;28;20185;-80
2021/10/28 03:27:42;;;;;;;0.20;0.20;;;7.40;99.90;;;;;;5063499;28;20235;-80
2021/10/28 03:30:09;;;;;;;0.30;0.20;;;7.30;99.90;;;;;;5064777;28;20212;-80
2021/10/28 03:32:35;;;;;;;0.40;0.40;;;7.30;99.90;;;;;;5063781;28;20667;-80
2021/10/28 03:35:01;;;;;;;0.17;0.17;;;7.40;99.90;;;;;;5049664;28;20269;-80
2021/10/28 03:37:33;;;;;;;0.30;0.30;;;7.40;99.90;;;;;;5059244;28;20193;-80
2021/10/28 04:30:06;;;;;;;0.83;0.30;;;7.40;99.90;;;;;;5058611;28;20188;-80
2021/10/28 04:32:32;;;;;;;0.17;0.17;;;7.30;99.90;;;;;;5047962;28;20182;-80
2021/10/28 04:34:58;;;;;;;0.33;0.27;;;7.30;99.90;;;;;;5038084;28;20192;-80
2021/10/28 04:37:23;;;;;;;0.80;0.40;;;7.30;99.90;;;;;;5071040;28;20197;-80
2021/10/28 04:39:49;;;;;;;0.20;0.20;;;7.20;99.90;;;;;;5058532;28;20202;-80
2021/10/28 04:42:15;;;;;;;0.53;0.50;;;7.10;99.90;;;;;;5059659;28;20193;-80
2021/10/28 04:44:41;;;;;;;0.23;0.23;;;7.00;99.90;;;;;;5050197;28;20198;-79
2021/10/28 04:47:08;;;;;;;0.70;0.70;;;6.80;99.90;;;;;;5063505;28;20184;-80
2021/10/28 04:49:34;;;;;;;0.50;0.50;;;6.60;99.90;;;;;;5061791;28;20208;-80
2021/10/28 04:52:00;;;;;;;0.50;0.40;;;6.50;99.90;;;;;;5057243;28;20269;-80
2021/10/28 04:54:25;;;;;;;0.33;0.33;;;6.40;99.90;;;;;;5051480;28;20181;-80
2021/10/28 04:56:51;;;;;;;0.70;0.50;;;6.20;99.90;;;;;;5056949;28;20276;-80
2021/10/28 04:59:17;;;;;;;0.20;0.20;;;6.20;99.90;;;;;;5057352;28;20212;-80
2021/10/28 05:01:43;;;;;;;0.20;0.20;;;6.10;99.90;;;;;;5044217;28;20202;-80
2021/10/28 05:04:09;;;;;;;0.33;0.30;;;6.00;99.90;;;;;;5053744;28;20177;-80
2021/10/28 05:06:35;;;;;;;0.50;0.37;;;5.90;99.90;;;;;;5051265;28;20174;-80
2021/10/28 05:09:01;;;;;;;0.13;0.13;;;5.70;99.90;;;;;;5052894;28;20278;-80
2021/10/28 05:11:27;;;;;;;0.20;0.20;;;5.70;99.90;;;;;;5048566;28;20544;-80
2021/10/28 05:13:53;;;;;;;0.50;0.30;;;5.70;99.90;;;;;;5044851;28;20192;-80
2021/10/28 05:16:19;;;;;;;0.10;0.10;;;5.60;99.90;;;;;;5052595;28;20181;-80
2021/10/28 05:18:45;;;;;;;0.53;0.53;;;5.60;99.90;;;;;;5059432;28;20251;-80
2021/10/28 05:21:13;;;;;;;0.43;0.20;;;5.60;99.90;;;;;;5049801;28;20580;-81
2021/10/28 05:23:39;;;;;;;1.10;0.40;;;5.60;99.90;;;;;;5056762;28;20222;-81
2021/10/28 05:26:06;;;;;;;0.73;0.50;;;5.70;99.90;;;;;;5055605;28;20171;-81
2021/10/28 05:28:33;;;;;;;0.20;0.20;;;5.70;99.90;;;;;;5082424;28;20210;-81
2021/10/28 05:30:58;;;;;;;0.17;0.17;;;5.70;99.90;;;;;;5056974;28;20177;-81
2021/10/28 05:33:24;;;;;;;0.50;0.50;;;5.80;99.90;;;;;;5059394;28;20186;-79
2021/10/28 05:35:50;;;;;;;0.00;0.00;;;5.90;99.90;;;;;;5056684;28;20188;-79
2021/10/28 05:38:17;;;;;;;0.10;0.10;;;5.90;99.90;;;;;;5057471;28;20203;-79
2021/10/28 05:40:42;;;;;;;0.10;0.10;;;6.00;99.90;;;;;;5047627;28;20293;-80
2021/10/28 05:43:09;;;;;;;0.20;0.20;;;6.00;99.90;;;;;;5051851;28;20276;-80
2021/10/28 05:45:36;;;;;;;0.20;0.20;;;6.00;99.90;;;;;;5050972;28;20185;-81
2021/10/28 05:48:02;;;;;;;0.63;0.50;;;6.00;99.90;;;;;;5046725;28;20200;-82
2021/10/28 05:50:29;;;;;;;0.30;0.30;;;6.00;99.90;;;;;;5046028;28;20173;-81
2021/10/28 05:52:56;;;;;;;0.97;0.77;;;6.10;99.90;;;;;;5047391;28;20264;-81
2021/10/28 05:55:24;;;;;;;0.17;0.17;;;6.10;99.90;;;;;;5054535;28;20181;-82
2021/10/28 05:57:53;;;;;;;1.10;0.50;;;6.10;99.90;;;;;;5047723;28;20171;-81
2021/10/28 06:00:21;;;;;;;0.20;0.20;;;6.20;99.90;;;;;;5047798;28;20255;-81
2021/10/28 06:02:46;;;;;;;0.10;0.10;;;6.30;99.90;;;;;;5063158;28;20526;-81
2021/10/28 06:05:12;;;;;;;0.67;0.67;;;6.30;99.90;;;;;;5055694;28;20195;-80
2021/10/28 06:07:39;;;;;;;0.10;0.10;;;6.40;99.90;;;;;;5060217;28;20625;-81
2021/10/28 06:10:06;;;;;;;0.33;0.33;;;6.40;99.90;;;;;;5055725;28;20205;-80
2021/10/28 06:12:40;;;;;;;0.37;0.30;;;6.40;99.90;;;;;;5057330;28;20188;-80
2021/10/28 06:15:07;;;;;;;0.63;0.50;;;6.40;99.90;;;;;;5055204;28;20179;-80
2021/10/28 06:17:36;;;;;;;0.67;0.67;;;6.50;99.90;;;;;;5060121;28;20169;-80
2021/10/28 06:20:02;;;;;;;0.90;0.50;;;6.60;99.90;;;;;;5050214;28;20666;-80
2021/10/28 06:22:29;;;;;;;0.43;0.43;;;6.50;99.90;;;;;;5049947;28;20288;-81
2021/10/28 06:24:56;;;;;;;0.60;0.60;;;6.60;99.90;;;;;;5086882;28;20226;-80
2021/10/28 06:27:22;;;;;;;0.33;0.33;;;6.60;99.90;;;;;;5053350;28;20199;-80
2021/10/28 06:29:48;;;;;;;1.27;1.20;;;6.50;99.90;;;;;;5046654;28;20210;-80
2021/10/28 06:32:14;;;;;;;0.23;0.23;;;6.60;99.90;;;;;;5050123;28;21098;-80
2021/10/28 06:34:42;;;;;;;0.43;0.43;;;6.60;99.90;;;;;;5051896;28;20677;-80
2021/10/28 06:37:08;;;;;;;0.27;0.27;;;6.60;99.90;;;;;;5054111;28;20177;-80
2021/10/28 06:39:33;;;;;;;0.90;0.87;;;6.60;99.90;;;;;;5042998;28;20312;-80
2021/10/28 06:41:59;;;;;;;0.10;0.10;;;6.60;99.90;;;;;;5055339;28;20197;-81
2021/10/28 06:44:25;;;;;;;0.30;0.30;;;6.50;99.90;;;;;;5040897;28;20182;-80
2021/10/28 06:46:51;;;;;;;0.77;0.47;;;6.50;99.90;;;;;;5078155;28;20721;-80
2021/10/28 06:49:18;;;;;;;0.10;0.10;;;6.60;99.90;;;;;;5062278;28;20257;-80
2021/10/28 06:51:44;;;;;;;0.30;0.30;;;6.60;99.90;;;;;;5047918;28;20670;-80
2021/10/28 06:54:18;;;;;;;0.23;0.23;;;6.60;99.90;;;;;;5052677;28;20180;-81
2021/10/28 06:57:11;;;;;;;0.27;0.23;;;6.70;99.90;;;;;;5039107;28;20182;-81
2021/10/28 07:04:47;;;;;;;0.13;0.13;;;7.00;99.90;;;;;;5059157;28;20190;-81
2021/10/28 07:07:14;;;;;;;0.43;0.33;;;7.00;99.90;;;;;;5059167;28;20180;-80
2021/10/28 07:09:48;;;;;;;0.27;0.27;;;7.10;99.90;;;;;;5056547;28;20206;-80
2021/10/28 07:14:42;;;;;;;0.10;0.10;;;7.20;99.90;;;;;;5045746;28;20193;-81
2021/10/28 07:22:45;;;;;;;0.20;0.20;;;7.30;99.90;;;;;;5063140;28;20688;-81
2021/10/28 07:27:56;;;;;;;0.20;0.20;;;7.10;99.90;;;;;;5062669;28;20212;-80
2021/10/28 07:33:16;;;;;;;1.00;0.30;;;7.00;99.90;;;;;;5050096;28;20184;-82
2021/10/28 07:38:43;;;;;;;0.93;0.53;;;7.00;99.90;;;;;;5057982;28;20200;-80
2021/10/28 07:55:56;;;;;;;0.10;0.10;;;7.70;99.90;;;;;;5057425;28;20214;-81
2021/10/28 08:16:57;;;;;;;0.10;0.10;;;8.80;99.90;;;;;;5053260;28;20550;-80
2021/10/28 08:19:42;;;;;;;2.00;1.13;;;8.80;99.90;;;;;;5040338;28;20213;-80
2021/10/28 08:30:09;;;;;;;0.40;0.40;;;9.30;99.90;;;;;;5048797;28;20209;-81
2021/10/28 08:32:36;;;;;;;0.63;0.63;;;9.50;99.90;;;;;;5045729;28;20189;-80
2021/10/28 08:35:02;;;;;;;0.40;0.40;;;9.50;99.90;;;;;;5051661;28;20201;-80
2021/10/28 08:37:45;;;;;;;0.40;0.40;;;9.60;99.90;;;;;;5051557;28;20393;-80
2021/10/28 08:40:14;;;;;;;1.27;1.17;;;9.60;99.90;;;;;;5053037;28;20170;-80
2021/10/28 08:42:41;;;;;;;1.23;0.70;;;9.60;99.90;;;;;;5044835;28;20196;-80
2021/10/28 08:45:07;;;;;;;0.30;0.30;;;9.70;99.90;;;;;;5066152;28;20181;-80
2021/10/28 08:47:33;;;;;;;0.43;0.43;;;9.80;99.90;;;;;;5053218;28;20178;-80
2021/10/28 08:55:48;;;;;;;6.47;1.47;;;10.00;99.90;;;;;;5046790;28;20699;-80
2021/10/28 09:29:35;;;;;;;2.43;1.70;;;8.50;99.90;;;;;;5055248;28;20287;-81
2021/10/28 09:32:19;;;;;;;2.87;2.50;;;8.60;99.90;;;;;;5053081;28;20184;-81
2021/10/28 09:51:12;;;;;;;0.50;0.50;;;9.30;99.90;;;;;;5046216;28;20520;-81
2021/10/28 09:59:35;;;;;;;0.73;0.73;;;9.50;99.90;;;;;;5046106;28;20210;-80
2021/10/28 10:04:33;;;;;;;2.00;0.70;;;9.80;99.90;;;;;;5039295;28;20188;-80
2021/10/28 10:07:00;;;;;;;0.87;0.73;;;10.00;99.90;;;;;;5047652;28;20186;-80
2021/10/28 10:09:26;;;;;;;1.27;1.17;;;10.10;99.90;;;;;;5052664;28;20209;-80
2021/10/28 10:11:52;;;;;;;1.93;1.17;;;10.20;99.90;;;;;;5054581;28;20294;-80
2021/10/28 10:14:20;;;;;;;1.40;1.30;;;10.30;99.90;;;;;;5052686;28;20222;-80
2021/10/28 10:16:47;;;;;;;1.07;1.07;;;10.30;99.90;;;;;;5060027;28;20188;-80
2021/10/28 10:19:15;;;;;;;3.23;1.60;;;10.40;99.90;;;;;;5058006;28;20261;-80
2021/10/28 10:21:44;;;;;;;0.53;0.53;;;10.40;99.90;;;;;;5052211;28;20206;-80
2021/10/28 10:27:36;;;;;;;1.73;1.23;;;10.20;99.90;;;;;;5051669;28;20211;-80
2021/10/28 10:30:20;;;;;;;1.23;0.77;;;10.10;99.90;;;;;;5056024;28;20210;-80
2021/10/28 12:22:43;;;;;;;0.90;0.90;;;9.40;99.90;;;;;;5062359;28;20205;-80
2021/10/28 12:44:25;;;;;;;1.20;1.10;;;9.70;99.90;;;;;;5044013;28;20656;-80
2021/10/28 12:55:37;;;;;;;2.97;1.20;;;8.80;99.90;;;;;;5056438;28;20218;-80
2021/10/28 13:57:37;;;;;;;1.93;1.30;;;9.90;99.90;;;;;;5049147;28;20252;-80
2021/10/28 14:00:29;;;;;;;1.83;1.20;;;10.10;99.90;;;;;;5056003;28;20736;-80
2021/10/28 15:01:16;;;;;;;0.63;0.63;;;10.40;99.90;;;;;;5060521;28;20215;-80
2021/10/28 15:30:25;;;;;;;1.20;1.20;;;9.40;99.90;;;;;;5065159;28;20186;-81
2021/10/28 15:35:43;;;;;;;1.60;1.07;;;9.80;99.90;;;;;;5048925;28;20271;-81
2021/10/28 15:41:38;;;;;;;7.33;3.13;;;9.90;99.90;;;;;;5057112;28;20310;-81
2021/10/28 15:43:43;;;;;;;2.00;1.40;;;9.90;99.90;;;;;;5055346;28;20286;-81
2021/10/28 15:57:17;;;;;;;4.27;1.83;;;9.90;99.90;;;;;;5061618;28;20208;-81
2021/10/28 16:24:08;;;;;;;1.70;1.27;;;9.50;99.90;;;;;;5049658;28;20197;-81
2021/10/28 16:26:35;;;;;;;4.50;1.70;;;9.50;99.90;;;;;;5055052;28;20183;-81
2021/10/28 16:29:03;;;;;;;0.83;0.80;;;9.40;99.90;;;;;;5056245;28;20305;-81
2021/10/28 16:31:30;;;;;;;1.80;1.67;;;9.60;99.90;;;;;;5067142;28;20557;-81
2021/10/28 16:33:56;;;;;;;4.43;2.47;;;9.50;99.90;;;;;;5061035;28;20589;-81
2021/10/28 16:36:24;;;;;;;3.03;1.33;;;9.50;99.90;;;;;;5055727;28;20256;-81
2021/10/28 16:38:51;;;;;;;1.67;0.67;;;9.80;99.90;;;;;;5059752;28;20210;-81
2021/10/28 16:41:17;;;;;;;1.33;1.07;;;9.70;99.90;;;;;;5063135;28;20197;-81
2021/10/28 16:43:42;;;;;;;1.57;1.47;;;9.70;99.90;;;;;;5054979;28;20182;-80
2021/10/28 16:46:08;;;;;;;1.23;1.13;;;9.70;99.90;;;;;;5044000;28;20291;-81
2021/10/28 16:48:36;;;;;;;4.40;1.60;;;9.80;99.90;;;;;;5039362;28;20205;-81
2021/10/28 16:51:02;;;;;;;4.63;1.23;;;9.90;99.90;;;;;;5065235;28;20212;-81
2021/10/28 16:53:27;;;;;;;2.83;1.47;;;9.90;99.90;;;;;;5061086;28;20664;-81
2021/10/28 16:55:53;;;;;;;2.33;1.83;;;9.60;99.90;;;;;;5061336;28;20190;-81
2021/10/28 16:58:19;;;;;;;2.20;2.00;;;9.60;99.90;;;;;;5044262;28;20590;-82
2021/10/28 17:00:48;;;;;;;5.27;1.33;;;9.50;99.90;;;;;;5056433;28;20174;-82
2021/10/28 17:03:13;;;;;;;1.67;1.10;;;9.50;99.90;;;;;;5063634;28;20170;-82
2021/10/28 17:05:39;;;;;;;2.40;1.27;;;9.70;99.90;;;;;;5048159;28;20559;-82
2021/10/28 17:08:05;;;;;;;2.83;1.60;;;9.90;99.90;;;;;;5058426;28;20571;-81
2021/10/28 17:10:31;;;;;;;2.50;1.77;;;10.00;99.90;;;;;;5044721;28;20188;-82
2021/10/28 17:12:57;;;;;;;1.87;1.30;;;10.10;99.90;;;;;;5043455;28;20186;-82
2021/10/28 17:15:23;;;;;;;2.30;0.87;;;10.10;99.90;;;;;;5048313;28;20191;-82
2021/10/28 17:17:49;;;;;;;0.83;0.83;;;10.20;99.90;;;;;;5057652;28;20194;-82
2021/10/28 17:20:14;;;;;;;5.50;1.37;;;10.20;99.90;;;;;;5045457;28;20216;-82
2021/10/28 17:22:40;;;;;;;2.40;1.27;;;10.10;99.90;;;;;;5052397;28;20547;-81
2021/10/28 17:25:08;;;;;;;1.40;1.17;;;10.20;99.90;;;;;;5056488;28;20173;-82
2021/10/28 17:27:34;;;;;;;2.17;0.90;;;10.30;99.90;;;;;;5050464;28;20643;-82
2021/10/28 17:30:01;;;;;;;1.10;1.00;;;10.30;99.90;;;;;;5061103;28;20211;-82
2021/10/28 17:32:27;;;;;;;1.30;1.07;;;10.30;99.90;;;;;;5064262;28;20652;-82
2021/10/28 17:34:52;;;;;;;2.77;1.63;;;10.30;99.90;;;;;;5056288;28;20227;-81
2021/10/28 17:37:18;;;;;;;5.73;1.63;;;10.30;99.90;;;;;;5052420;28;20195;-81
2021/10/28 17:39:44;;;;;;;2.20;1.13;;;10.10;99.90;;;;;;5048058;28;20289;-81
2021/10/28 17:42:09;;;;;;;2.60;2.17;;;10.20;99.90;;;;;;5052249;28;20688;-81
2021/10/28 17:44:53;;;;;;;3.03;1.03;;;10.30;99.90;;;;;;5043415;28;20677;-80
2021/10/28 17:47:20;;;;;;;1.10;1.00;;;10.30;99.90;;;;;;5053721;28;20176;-80
2021/10/28 17:49:46;;;;;;;4.13;2.87;;;10.00;99.90;;;;;;5055651;28;20206;-80
2021/10/28 17:52:13;;;;;;;1.83;1.33;;;10.00;99.90;;;;;;5046922;28;20250;-81
2021/10/28 17:54:38;;;;;;;7.13;2.37;;;10.00;99.90;;;;;;5051783;28;20182;-81
2021/10/28 17:57:07;;;;;;;1.47;1.40;;;10.10;99.90;;;;;;5044092;28;20188;-82
2021/10/28 17:59:33;;;;;;;2.83;1.60;;;10.30;99.90;;;;;;5051048;28;20237;-81
2021/10/28 18:01:59;;;;;;;2.73;1.23;;;10.30;99.90;;;;;;5051934;28;20221;-82
2021/10/28 18:04:25;;;;;;;2.57;1.37;;;10.30;99.90;;;;;;5048539;28;20594;-81
2021/10/28 18:06:51;;;;;;;4.33;1.27;;;10.00;99.90;;;;;;5046251;28;20174;-82
2021/10/28 18:09:18;;;;;;;3.73;2.07;;;9.80;99.90;;;;;;5040322;28;20295;-82
2021/10/28 18:11:45;;;;;;;2.33;1.37;;;9.60;99.90;;;;;;5057057;28;20204;-82
2021/10/28 18:14:15;;;;;;;1.80;1.37;;;9.60;99.90;;;;;;5042653;28;20187;-81
2021/10/28 18:16:41;;;;;;;2.20;1.53;;;9.60;99.90;;;;;;5043645;28;20185;-81
2021/10/28 18:19:10;;;;;;;1.57;1.47;;;9.80;99.90;;;;;;5045834;28;20261;-81
2021/10/28 18:21:38;;;;;;;6.93;2.80;;;9.90;99.90;;;;;;5036480;28;20546;-82
2021/10/28 18:24:04;;;;;;;3.23;2.03;;;9.80;99.90;;;;;;5040252;28;20224;-81
2021/10/28 18:26:31;;;;;;;5.87;3.23;;;9.60;99.90;;;;;;5032995;28;20213;-81
2021/10/28 18:28:57;;;;;;;2.33;2.13;;;9.20;99.90;;;;;;5040637;28;20300;-82
2021/10/28 18:31:24;;;;;;;3.07;0.97;;;9.20;99.90;;;;;;5045007;28;20277;-82
2021/10/28 18:33:51;;;;;;;3.90;2.17;;;9.20;99.90;;;;;;5042683;28;20186;-81
2021/10/28 18:36:18;;;;;;;2.13;1.67;;;9.10;99.90;;;;;;5038507;28;20655;-81
2021/10/28 18:38:45;;;;;;;3.87;2.53;;;9.10;99.90;;;;;;5044677;28;20694;-81
2021/10/28 18:41:16;;;;;;;3.83;1.57;;;9.10;99.90;;;;;;5049696;28;20198;-81
2021/10/28 18:43:46;;;;;;;1.73;1.53;;;9.10;99.90;;;;;;5040844;28;20189;-82
2021/10/28 18:46:17;;;;;;;3.67;2.33;;;9.10;99.90;;;;;;5047052;28;20175;-81
2021/10/28 18:48:43;;;;;;;4.40;2.23;;;9.10;99.90;;;;;;5045701;28;20216;-82
2021/10/28 18:51:10;;;;;;;3.27;2.07;;;9.10;99.90;;;;;;5038316;28;20210;-81
2021/10/28 18:53:40;;;;;;;7.17;3.60;;;9.00;99.90;;;;;;5056543;28;20193;-82
2021/10/28 18:56:06;;;;;;;4.60;2.50;;;9.00;99.90;;;;;;5039953;28;20182;-82
2021/10/28 18:58:32;;;;;;;2.23;2.03;;;8.90;99.90;;;;;;5047094;28;20211;-82
2021/10/28 19:00:58;;;;;;;9.40;2.60;;;8.90;99.90;;;;;;5039310;28;20277;-82
2021/10/28 19:03:24;;;;;;;2.73;2.50;;;8.90;99.90;;;;;;5046675;28;20820;-82
2021/10/28 19:05:55;;;;;;;2.10;1.80;;;8.90;99.90;;;;;;5049226;28;20269;-82
2021/10/28 19:08:21;;;;;;;1.73;1.40;;;9.00;99.90;;;;;;5077377;28;20236;-81
2021/10/28 19:10:47;;;;;;;0.93;0.93;;;9.10;99.90;;;;;;5052015;28;20180;-81
2021/10/28 19:13:13;;;;;;;2.07;1.43;;;9.20;99.90;;;;;;5045970;28;20193;-80
2021/10/28 19:15:39;;;;;;;3.00;1.50;;;9.20;99.90;;;;;;5036782;28;20795;-81
2021/10/28 19:18:06;;;;;;;4.13;2.00;;;9.10;99.90;;;;;;5048538;28;20311;-81
2021/10/28 19:20:33;;;;;;;2.33;2.13;;;9.30;99.90;;;;;;5053732;28;20555;-82
2021/10/28 19:22:59;;;;;;;2.83;2.43;;;9.20;99.90;;;;;;5053456;28;20672;-81
2021/10/28 19:25:24;;;;;;;2.53;1.83;;;9.20;99.90;;;;;;5052295;28;20277;-82
2021/10/28 19:27:54;;;;;;;4.90;2.50;;;9.20;99.90;;;;;;5052007;28;20662;-81
2021/10/28 19:32:48;;;;;;;4.63;2.07;;;9.20;99.90;;;;;;5043598;28;20193;-81
2021/10/28 19:35:15;;;;;;;1.53;1.33;;;9.40;99.90;;;;;;5053248;28;20179;-82
2021/10/28 19:37:47;;;;;;;2.03;1.50;;;9.60;99.90;;;;;;5040233;28;20187;-82
2021/10/28 19:45:24;;;;;;;5.97;2.30;;;9.60;99.90;;;;;;5043489;28;20181;-82
2021/10/28 19:47:49;;;;;;;2.33;1.87;;;9.50;99.90;;;;;;5056141;28;20232;-81
2021/10/28 19:50:15;;;;;;;4.83;1.63;;;9.50;99.90;;;;;;5046026;28;20663;-82
2021/10/28 19:52:42;;;;;;;9.90;2.30;;;9.50;99.90;;;;;;5056001;28;20187;-81
2021/10/28 19:55:08;;;;;;;4.50;1.83;;;9.50;99.90;;;;;;5056624;28;20193;-81
2021/10/28 19:57:41;;;;;;;6.93;2.37;;;9.40;99.90;;;;;;5041479;28;22107;-81
2021/10/28 20:00:30;;;;;;;1.73;1.60;;;9.50;99.90;;;;;;5048191;28;20201;-81
2021/10/28 20:08:17;;;;;;;3.57;2.47;;;9.70;99.90;;;;;;5047435;28;20684;-81
2021/10/28 20:21:34;;;;;;;0.90;0.90;;;9.60;99.90;;;;;;5047297;28;20281;-81
2021/10/28 20:24:00;;;;;;;2.13;1.53;;;9.60;99.90;;;;;;5043971;28;20269;-82
2021/10/28 20:26:27;;;;;;;4.13;1.83;;;9.50;99.90;;;;;;5053368;28;20646;-81
2021/10/28 20:28:55;;;;;;;2.20;1.90;;;9.50;99.90;;;;;;5048096;28;20215;-81
2021/10/28 20:31:22;;;;;;;2.03;1.43;;;9.50;99.90;;;;;;5051715;28;20185;-81
2021/10/28 20:33:57;;;;;;;3.00;1.67;;;9.50;99.90;;;;;;5052930;28;20709;-80
2021/10/28 20:38:56;;;;;;;1.60;1.37;;;9.60;99.90;;;;;;5049680;28;20253;-81
2021/10/28 20:41:23;;;;;;;3.90;2.00;;;9.70;99.90;;;;;;5049047;28;20217;-81
2021/10/28 20:43:49;;;;;;;4.37;1.40;;;9.80;99.90;;;;;;5050816;28;20204;-81
2021/10/28 20:46:21;;;;;;;3.97;1.23;;;9.90;99.90;;;;;;5088790;28;20182;-82
2021/10/28 20:48:48;;;;;;;0.77;0.77;;;9.90;99.90;;;;;;5050602;28;20211;-81
2021/10/28 20:51:14;;;;;;;1.83;1.73;;;9.90;99.90;;;;;;5043513;28;20183;-82
2021/10/28 20:53:40;;;;;;;5.43;2.23;;;10.00;99.90;;;;;;5043748;28;20179;-81
2021/10/28 20:56:06;;;;;;;6.77;3.17;;;9.80;99.90;;;;;;5049770;28;20177;-81
2021/10/28 20:58:32;;;;;;;1.87;1.07;;;9.80;99.90;;;;;;5057790;28;20216;-82
2021/10/28 21:00:57;;;;;;;7.03;1.93;;;9.70;99.90;;;;;;5057254;28;20555;-81
2021/10/28 21:03:23;;;;;;;2.90;2.43;;;9.50;99.90;;;;;;5065874;28;20187;-81
2021/10/28 21:05:49;;;;;;;3.53;1.70;;;9.30;99.90;;;;;;5052304;28;20185;-80
2021/10/28 21:08:14;;;;;;;6.57;2.17;;;9.30;99.90;;;;;;5046875;28;20208;-81
2021/10/28 21:10:40;;;;;;;2.87;1.57;;;9.40;99.90;;;;;;5063216;28;20181;-80
2021/10/28 21:13:06;;;;;;;2.60;2.27;;;9.30;99.90;;;;;;5059123;28;20187;-80
2021/10/28 21:15:32;;;;;;;3.33;3.13;;;9.30;99.90;;;;;;5062634;28;20606;-80
2021/10/28 21:17:58;;;;;;;2.07;1.93;;;9.30;99.90;;;;;;5060026;28;20250;-80
2021/10/28 21:20:25;;;;;;;2.77;1.87;;;9.20;99.90;;;;;;5051461;28;20257;-81
2021/10/28 21:22:54;;;;;;;2.53;1.37;;;9.40;99.90;;;;;;5055429;28;20193;-81
2021/10/28 21:25:21;;;;;;;1.63;1.53;;;9.50;99.90;;;;;;5065636;28;20180;-80
2021/10/28 21:27:47;;;;;;;2.17;1.40;;;9.60;99.90;;;;;;5063822;28;20243;-80
2021/10/28 21:30:13;;;;;;;2.30;1.60;;;9.60;99.90;;;;;;5070916;28;20187;-80
2021/10/28 21:32:41;;;;;;;4.43;2.07;;;9.60;99.90;;;;;;5060039;28;20283;-81
2021/10/28 21:35:08;;;;;;;1.40;1.27;;;9.60;99.90;;;;;;5049796;28;20187;-81
2021/10/28 21:37:35;;;;;;;4.77;1.50;;;9.70;99.90;;;;;;5059572;28;20232;-80
2021/10/28 21:40:01;;;;;;;5.50;1.73;;;9.80;99.90;;;;;;5059512;28;20682;-80
2021/10/28 21:42:26;;;;;;;3.70;1.10;;;10.00;99.90;;;;;;5047504;28;20224;-80
2021/10/28 21:44:54;;;;;;;1.00;0.77;;;10.10;99.90;;;;;;5058965;28;20708;-80
2021/10/28 21:47:25;;;;;;;0.47;0.47;;;10.10;99.90;;;;;;5047186;28;20195;-82
2021/10/28 21:49:52;;;;;;;0.77;0.77;;;10.10;99.90;;;;;;5053975;28;20202;-82
2021/10/28 21:52:25;;;;;;;2.13;1.43;;;10.20;99.90;;;;;;5058446;28;20271;-81
2021/10/28 21:55:04;;;;;;;6.23;1.97;;;10.20;99.90;;;;;;5059503;28;20178;-82
2021/10/28 22:00:15;;;;;;;2.10;1.20;;;9.90;99.90;;;;;;5066455;28;20657;-80
2021/10/28 22:26:42;;;;;;;5.00;2.03;;;9.50;99.90;;;;;;5053412;28;20173;-80
2021/10/28 22:29:07;;;;;;;1.70;1.00;;;9.50;99.90;;;;;;5057982;28;20271;-80
2021/10/28 22:31:33;;;;;;;2.20;1.50;;;9.60;99.90;;;;;;5059762;28;20195;-80
2021/10/28 22:33:59;;;;;;;2.30;1.30;;;9.40;99.90;;;;;;5060194;28;20201;-81